El Chumbo — EA8310 — position and weather

sailwx.info

Track history (hours):
 
Tides and Currents Weather Stations Pressure Air Temp Water Temp Dewpoint Dewpoint Depression Visibility Wind Speed Wind Dir Waves Ship Positions

El Chumbo

Last reported at 2018-Jun-22 02:09 UTC. Time now 2018-Jun-22 05:43 UTC.
Position N 38°37' E 000°10'.

Length 18 m; draft 2.5 m.

Type: Fishing. MMSI: 224172830.

Date/timePositionNaut miles runAvg speedWind from/ knotsBaromVisibWave heightAir tempDewpointWater temp
2018-Jun-22 02:09N 38°37' E 000°10'0 0.4
2018-Jun-22 01:44N 38°37' E 000°10'0 0.1
2018-Jun-21 23:39N 38°37' E 000°10'2 1.9
2018-Jun-21 22:40N 38°38' E 000°13'3 6.5
2018-Jun-21 22:15N 38°36' E 000°10'8 5.4
2018-Jun-21 20:44N 38°35' W 000°01'2 2.1
2018-Jun-21 19:42N 38°35' W 000°03'0 0.0
2018-Jun-21 19:30N 38°35' W 000°03'0 0.0
2018-Jun-21 19:00N 38°35' W 000°03'0 0.0
2018-Jun-21 18:30N 38°35' W 000°03'0 0.0
2018-Jun-21 16:49N 38°35' W 000°03'0 0.0
2018-Jun-21 16:30N 38°35' W 000°03'0 0.0
2018-Jun-21 16:00N 38°35' W 000°03'0 0.0
2018-Jun-21 15:30N 38°35' W 000°03'0 0.0
2018-Jun-21 14:30N 38°35' W 000°03'  
2018-Jun-18 03:54N 38°22' W 000°19'5 4.2
2018-Jun-18 02:39N 38°17' W 000°16'1 9.5
2018-Jun-18 02:30N 38°16' W 000°15'5 9.3
2018-Jun-18 01:59N 38°13' W 000°11'3 4.3
2018-Jun-18 01:14N 38°11' W 000°08'  
2018-Jun-13 03:47N 38°00' W 000°21'0 0.3
2018-Jun-13 03:22N 38°00' W 000°21'3 6.9
2018-Jun-13 02:56N 38°01' W 000°25'0 0.2
2018-Jun-13 02:30N 38°01' W 000°25'2 3.8
2018-Jun-13 01:53N 37°59' W 000°26'1 1.3
2018-Jun-13 01:30N 37°59' W 000°27'0 0.2
2018-Jun-13 00:58N 37°60' W 000°27'0 0.5
2018-Jun-13 00:30N 37°59' W 000°27'0 0.1
2018-Jun-13 00:00N 37°59' W 000°27'0 0.6
2018-Jun-12 23:29N 37°60' W 000°27'4 7.7
2018-Jun-12 22:59N 38°03' W 000°27'4 8.2
2018-Jun-12 22:30N 38°07' W 000°25'14 0.8
2018-Jun-12 04:05N 37°54' W 000°30'1 3.6
2018-Jun-12 03:52N 37°53' W 000°30'0 0.2
2018-Jun-12 03:27N 37°53' W 000°30'2 4.2
2018-Jun-12 03:00N 37°55' W 000°29'510.1
2018-Jun-12 02:30N 37°59' W 000°26'  
Track history (hours):
 
Tides and Currents Weather Stations Pressure Air Temp Water Temp Dewpoint Dewpoint Depression Visibility Wind Speed Wind Dir Waves Ship Positions

El Chumbo

Last reported at 2018-Jun-22 02:09 UTC. Time now 2018-Jun-22 05:43 UTC.
Position N 38°37' E 000°10'.

Length 18 m; draft 2.5 m.

Type: Fishing. MMSI: 224172830.

Date/timePositionNaut miles runAvg speedWind from/ knotsBaromVisibWave heightAir tempDewpointWater temp
2018-Jun-22 02:09N 38°37' E 000°10'0 0.4
2018-Jun-22 01:44N 38°37' E 000°10'0 0.1
2018-Jun-21 23:39N 38°37' E 000°10'2 1.9
2018-Jun-21 22:40N 38°38' E 000°13'3 6.5
2018-Jun-21 22:15N 38°36' E 000°10'8 5.4
2018-Jun-21 20:44N 38°35' W 000°01'2 2.1
2018-Jun-21 19:42N 38°35' W 000°03'0 0.0
2018-Jun-21 19:30N 38°35' W 000°03'0 0.0
2018-Jun-21 19:00N 38°35' W 000°03'0 0.0
2018-Jun-21 18:30N 38°35' W 000°03'0 0.0
2018-Jun-21 16:49N 38°35' W 000°03'0 0.0
2018-Jun-21 16:30N 38°35' W 000°03'0 0.0
2018-Jun-21 16:00N 38°35' W 000°03'0 0.0
2018-Jun-21 15:30N 38°35' W 000°03'0 0.0
2018-Jun-21 14:30N 38°35' W 000°03'  
2018-Jun-18 03:54N 38°22' W 000°19'5 4.2
2018-Jun-18 02:39N 38°17' W 000°16'1 9.5
2018-Jun-18 02:30N 38°16' W 000°15'5 9.3
2018-Jun-18 01:59N 38°13' W 000°11'3 4.3
2018-Jun-18 01:14N 38°11' W 000°08'  
2018-Jun-13 03:47N 38°00' W 000°21'0 0.3
2018-Jun-13 03:22N 38°00' W 000°21'3 6.9
2018-Jun-13 02:56N 38°01' W 000°25'0 0.2
2018-Jun-13 02:30N 38°01' W 000°25'2 3.8
2018-Jun-13 01:53N 37°59' W 000°26'1 1.3
2018-Jun-13 01:30N 37°59' W 000°27'0 0.2
2018-Jun-13 00:58N 37°60' W 000°27'0 0.5
2018-Jun-13 00:30N 37°59' W 000°27'0 0.1
2018-Jun-13 00:00N 37°59' W 000°27'0 0.6
2018-Jun-12 23:29N 37°60' W 000°27'4 7.7
2018-Jun-12 22:59N 38°03' W 000°27'4 8.2
2018-Jun-12 22:30N 38°07' W 000°25'14 0.8
2018-Jun-12 04:05N 37°54' W 000°30'1 3.6
2018-Jun-12 03:52N 37°53' W 000°30'0 0.2
2018-Jun-12 03:27N 37°53' W 000°30'2 4.2
2018-Jun-12 03:00N 37°55' W 000°29'510.1
2018-Jun-12 02:30N 37°59' W 000°26'  

Dump ship's entire track history